sensor_id;sensor_type;location;lat;lon;timestamp;temperature;humidity
13880;DHT22;7010;48.200;16.332;2023-04-15T00:01:12;3.80;99.90
13880;DHT22;7010;48.200;16.332;2023-04-15T00:03:45;3.80;99.90
13880;DHT22;7010;48.200;16.332;2023-04-15T00:06:14;3.80;99.90
13880;DHT22;7010;48.200;16.332;2023-04-15T00:08:43;3.80;99.90
13880;DHT22;7010;48.200;16.332;2023-04-15T00:11:13;3.80;99.90
13880;DHT22;7010;48.200;16.332;2023-04-15T00:13:42;3.80;99.90
13880;DHT22;7010;48.200;16.332;2023-04-15T00:16:11;3.80;99.90
13880;DHT22;7010;48.200;16.332;2023-04-15T00:18:39;3.80;99.90
13880;DHT22;7010;48.200;16.332;2023-04-15T00:21:08;3.80;99.90
13880;DHT22;7010;48.200;16.332;2023-04-15T00:23:36;3.80;99.90
13880;DHT22;7010;48.200;16.332;2023-04-15T00:26:05;3.80;99.90
13880;DHT22;7010;48.200;16.332;2023-04-15T00:28:35;3.80;99.90
13880;DHT22;7010;48.200;16.332;2023-04-15T00:31:04;3.80;99.90
13880;DHT22;7010;48.200;16.332;2023-04-15T00:33:33;3.80;99.90
13880;DHT22;7010;48.200;16.332;2023-04-15T00:36:03;3.80;99.90
13880;DHT22;7010;48.200;16.332;2023-04-15T00:38:31;3.80;99.90
13880;DHT22;7010;48.200;16.332;2023-04-15T00:41:00;3.80;99.90
13880;DHT22;7010;48.200;16.332;2023-04-15T00:43:29;3.80;99.90
13880;DHT22;7010;48.200;16.332;2023-04-15T00:46:00;3.70;99.90
13880;DHT22;7010;48.200;16.332;2023-04-15T00:48:30;3.70;99.90
13880;DHT22;7010;48.200;16.332;2023-04-15T00:50:58;3.70;99.90
13880;DHT22;7010;48.200;16.332;2023-04-15T00:53:27;3.80;99.90
13880;DHT22;7010;48.200;16.332;2023-04-15T00:55:55;3.80;99.90
13880;DHT22;7010;48.200;16.332;2023-04-15T00:58:24;3.80;99.90
13880;DHT22;7010;48.200;16.332;2023-04-15T01:00:54;3.80;99.90
13880;DHT22;7010;48.200;16.332;2023-04-15T01:03:25;3.80;99.90
13880;DHT22;7010;48.200;16.332;2023-04-15T01:05:54;3.80;99.90
13880;DHT22;7010;48.200;16.332;2023-04-15T01:08:26;3.80;99.90
13880;DHT22;7010;48.200;16.332;2023-04-15T01:10:55;3.80;99.90
13880;DHT22;7010;48.200;16.332;2023-04-15T01:13:24;3.70;99.90
13880;DHT22;7010;48.200;16.332;2023-04-15T01:15:53;3.70;99.90
13880;DHT22;7010;48.200;16.332;2023-04-15T01:18:22;3.80;99.90
13880;DHT22;7010;48.200;16.332;2023-04-15T01:20:52;3.80;99.90
13880;DHT22;7010;48.200;16.332;2023-04-15T01:23:21;3.80;99.90
13880;DHT22;7010;48.200;16.332;2023-04-15T01:25:55;3.80;99.90
13880;DHT22;7010;48.200;16.332;2023-04-15T01:28:24;3.80;99.90
13880;DHT22;7010;48.200;16.332;2023-04-15T01:31:05;3.80;99.90
13880;DHT22;7010;48.200;16.332;2023-04-15T01:33:34;3.80;99.90
13880;DHT22;7010;48.200;16.332;2023-04-15T01:36:04;3.80;99.90
13880;DHT22;7010;48.200;16.332;2023-04-15T01:38:34;3.80;99.90
13880;DHT22;7010;48.200;16.332;2023-04-15T01:41:05;3.90;99.90
13880;DHT22;7010;48.200;16.332;2023-04-15T01:43:34;3.90;99.90
13880;DHT22;7010;48.200;16.332;2023-04-15T01:46:03;3.90;99.90
13880;DHT22;7010;48.200;16.332;2023-04-15T01:48:32;3.90;99.90
13880;DHT22;7010;48.200;16.332;2023-04-15T01:51:00;3.90;99.90
13880;DHT22;7010;48.200;16.332;2023-04-15T01:53:29;4.00;99.90
13880;DHT22;7010;48.200;16.332;2023-04-15T01:55:57;4.00;99.90
13880;DHT22;7010;48.200;16.332;2023-04-15T01:58:27;4.00;99.90
13880;DHT22;7010;48.200;16.332;2023-04-15T02:00:55;4.00;99.90
13880;DHT22;7010;48.200;16.332;2023-04-15T02:03:24;4.00;99.90
13880;DHT22;7010;48.200;16.332;2023-04-15T02:05:53;4.00;99.90
13880;DHT22;7010;48.200;16.332;2023-04-15T02:08:22;4.00;99.90
13880;DHT22;7010;48.200;16.332;2023-04-15T02:10:51;4.00;99.90
13880;DHT22;7010;48.200;16.332;2023-04-15T02:13:19;4.00;99.90
13880;DHT22;7010;48.200;16.332;2023-04-15T02:15:49;4.10;99.90
13880;DHT22;7010;48.200;16.332;2023-04-15T02:18:18;4.10;99.90
13880;DHT22;7010;48.200;16.332;2023-04-15T02:20:47;4.10;99.90
13880;DHT22;7010;48.200;16.332;2023-04-15T02:23:18;4.10;99.90
13880;DHT22;7010;48.200;16.332;2023-04-15T02:25:47;4.10;99.90
13880;DHT22;7010;48.200;16.332;2023-04-15T02:28:20;4.00;99.90
13880;DHT22;7010;48.200;16.332;2023-04-15T02:30:50;4.10;99.90
13880;DHT22;7010;48.200;16.332;2023-04-15T02:33:20;4.10;99.90
13880;DHT22;7010;48.200;16.332;2023-04-15T02:35:49;4.10;99.90
13880;DHT22;7010;48.200;16.332;2023-04-15T02:38:19;4.10;99.90
13880;DHT22;7010;48.200;16.332;2023-04-15T02:40:47;4.10;99.90
13880;DHT22;7010;48.200;16.332;2023-04-15T02:43:16;4.10;99.90
13880;DHT22;7010;48.200;16.332;2023-04-15T02:45:45;4.10;99.90
13880;DHT22;7010;48.200;16.332;2023-04-15T02:48:16;4.10;99.90
13880;DHT22;7010;48.200;16.332;2023-04-15T02:50:46;4.10;99.90
13880;DHT22;7010;48.200;16.332;2023-04-15T02:53:14;4.10;99.90
13880;DHT22;7010;48.200;16.332;2023-04-15T02:55:43;4.10;99.90
13880;DHT22;7010;48.200;16.332;2023-04-15T02:58:12;4.20;99.90
13880;DHT22;7010;48.200;16.332;2023-04-15T03:00:40;4.10;99.90
13880;DHT22;7010;48.200;16.332;2023-04-15T03:03:08;4.20;99.90
13880;DHT22;7010;48.200;16.332;2023-04-15T03:05:39;4.20;99.90
13880;DHT22;7010;48.200;16.332;2023-04-15T03:08:07;4.20;99.90
13880;DHT22;7010;48.200;16.332;2023-04-15T03:10:35;4.20;99.90
13880;DHT22;7010;48.200;16.332;2023-04-15T03:13:04;4.20;99.90
13880;DHT22;7010;48.200;16.332;2023-04-15T03:15:33;4.20;99.90
13880;DHT22;7010;48.200;16.332;2023-04-15T03:18:02;4.20;99.90
13880;DHT22;7010;48.200;16.332;2023-04-15T03:20:30;4.20;99.90
13880;DHT22;7010;48.200;16.332;2023-04-15T03:23:01;4.20;99.90
13880;DHT22;7010;48.200;16.332;2023-04-15T03:25:29;4.20;99.90
13880;DHT22;7010;48.200;16.332;2023-04-15T03:27:59;4.30;99.90
13880;DHT22;7010;48.200;16.332;2023-04-15T03:30:27;4.20;99.90
13880;DHT22;7010;48.200;16.332;2023-04-15T03:32:55;4.30;99.90
13880;DHT22;7010;48.200;16.332;2023-04-15T03:35:24;4.30;99.90
13880;DHT22;7010;48.200;16.332;2023-04-15T03:37:52;4.20;99.90
13880;DHT22;7010;48.200;16.332;2023-04-15T03:40:22;4.20;99.90
13880;DHT22;7010;48.200;16.332;2023-04-15T03:42:51;4.20;99.90
13880;DHT22;7010;48.200;16.332;2023-04-15T03:45:19;4.30;99.90
13880;DHT22;7010;48.200;16.332;2023-04-15T03:47:48;4.30;99.90
13880;DHT22;7010;48.200;16.332;2023-04-15T03:50:17;4.30;99.90
13880;DHT22;7010;48.200;16.332;2023-04-15T03:52:45;4.30;99.90
13880;DHT22;7010;48.200;16.332;2023-04-15T03:55:16;4.30;99.90
13880;DHT22;7010;48.200;16.332;2023-04-15T03:57:47;4.30;99.90
13880;DHT22;7010;48.200;16.332;2023-04-15T04:00:15;4.30;99.90
13880;DHT22;7010;48.200;16.332;2023-04-15T04:02:43;4.30;99.90
13880;DHT22;7010;48.200;16.332;2023-04-15T04:05:12;4.30;99.90
13880;DHT22;7010;48.200;16.332;2023-04-15T04:07:40;4.30;99.90
13880;DHT22;7010;48.200;16.332;2023-04-15T04:10:09;4.30;99.90
13880;DHT22;7010;48.200;16.332;2023-04-15T04:12:38;4.30;99.90
13880;DHT22;7010;48.200;16.332;2023-04-15T04:15:09;4.30;99.90
13880;DHT22;7010;48.200;16.332;2023-04-15T04:17:37;4.30;99.90
13880;DHT22;7010;48.200;16.332;2023-04-15T04:20:07;4.30;99.90
13880;DHT22;7010;48.200;16.332;2023-04-15T04:22:37;4.30;99.90
13880;DHT22;7010;48.200;16.332;2023-04-15T04:25:07;4.30;99.90
13880;DHT22;7010;48.200;16.332;2023-04-15T04:27:36;4.30;99.90
13880;DHT22;7010;48.200;16.332;2023-04-15T04:30:05;4.30;99.90
13880;DHT22;7010;48.200;16.332;2023-04-15T04:32:35;4.30;99.90
13880;DHT22;7010;48.200;16.332;2023-04-15T04:35:04;4.30;99.90
13880;DHT22;7010;48.200;16.332;2023-04-15T04:37:32;4.30;99.90
13880;DHT22;7010;48.200;16.332;2023-04-15T04:40:01;4.30;99.90
13880;DHT22;7010;48.200;16.332;2023-04-15T04:42:30;4.30;99.90
13880;DHT22;7010;48.200;16.332;2023-04-15T04:44:58;4.40;99.90
13880;DHT22;7010;48.200;16.332;2023-04-15T04:47:27;4.40;99.90
13880;DHT22;7010;48.200;16.332;2023-04-15T04:49:57;4.40;99.90
13880;DHT22;7010;48.200;16.332;2023-04-15T04:52:26;4.40;99.90
13880;DHT22;7010;48.200;16.332;2023-04-15T04:54:54;4.40;99.90
13880;DHT22;7010;48.200;16.332;2023-04-15T04:57:23;4.50;99.90
13880;DHT22;7010;48.200;16.332;2023-04-15T04:59:51;4.50;99.90
13880;DHT22;7010;48.200;16.332;2023-04-15T05:02:20;4.50;99.90
13880;DHT22;7010;48.200;16.332;2023-04-15T05:04:48;4.60;99.90
13880;DHT22;7010;48.200;16.332;2023-04-15T05:07:21;4.50;99.90
13880;DHT22;7010;48.200;16.332;2023-04-15T05:09:50;4.60;99.90
13880;DHT22;7010;48.200;16.332;2023-04-15T05:12:18;4.60;99.90
13880;DHT22;7010;48.200;16.332;2023-04-15T05:14:47;4.60;99.90
13880;DHT22;7010;48.200;16.332;2023-04-15T05:17:15;4.60;99.90
13880;DHT22;7010;48.200;16.332;2023-04-15T05:19:44;4.60;99.90
13880;DHT22;7010;48.200;16.332;2023-04-15T05:22:12;4.70;99.90
13880;DHT22;7010;48.200;16.332;2023-04-15T05:24:42;4.60;99.90
13880;DHT22;7010;48.200;16.332;2023-04-15T05:27:10;4.60;99.90
13880;DHT22;7010;48.200;16.332;2023-04-15T05:29:39;4.70;99.90
13880;DHT22;7010;48.200;16.332;2023-04-15T05:32:07;4.70;99.90
13880;DHT22;7010;48.200;16.332;2023-04-15T05:34:36;4.70;99.90
13880;DHT22;7010;48.200;16.332;2023-04-15T05:37:05;4.70;99.90
13880;DHT22;7010;48.200;16.332;2023-04-15T05:39:33;4.80;99.90
13880;DHT22;7010;48.200;16.332;2023-04-15T05:42:03;4.80;99.90
13880;DHT22;7010;48.200;16.332;2023-04-15T05:44:32;4.80;99.90
13880;DHT22;7010;48.200;16.332;2023-04-15T05:47:01;4.80;99.90
13880;DHT22;7010;48.200;16.332;2023-04-15T05:49:30;4.90;99.90
13880;DHT22;7010;48.200;16.332;2023-04-15T05:51:58;4.90;99.90
13880;DHT22;7010;48.200;16.332;2023-04-15T05:54:26;4.90;99.90
13880;DHT22;7010;48.200;16.332;2023-04-15T05:56:55;5.00;99.90
13880;DHT22;7010;48.200;16.332;2023-04-15T05:59:25;5.00;99.90
13880;DHT22;7010;48.200;16.332;2023-04-15T06:01:54;5.00;99.90
13880;DHT22;7010;48.200;16.332;2023-04-15T06:04:23;5.00;99.90
13880;DHT22;7010;48.200;16.332;2023-04-15T06:06:52;5.10;99.90
13880;DHT22;7010;48.200;16.332;2023-04-15T06:09:20;5.10;99.90
13880;DHT22;7010;48.200;16.332;2023-04-15T06:11:49;5.10;99.90
13880;DHT22;7010;48.200;16.332;2023-04-15T06:14:17;5.20;99.90
13880;DHT22;7010;48.200;16.332;2023-04-15T06:16:47;5.20;99.90
13880;DHT22;7010;48.200;16.332;2023-04-15T06:19:15;5.20;99.90
13880;DHT22;7010;48.200;16.332;2023-04-15T06:21:44;5.20;99.90
13880;DHT22;7010;48.200;16.332;2023-04-15T06:24:13;5.20;99.90
13880;DHT22;7010;48.200;16.332;2023-04-15T06:26:41;5.30;99.90
13880;DHT22;7010;48.200;16.332;2023-04-15T06:29:09;5.30;99.90
13880;DHT22;7010;48.200;16.332;2023-04-15T06:31:38;5.30;99.90
13880;DHT22;7010;48.200;16.332;2023-04-15T06:34:08;5.30;99.90
13880;DHT22;7010;48.200;16.332;2023-04-15T06:36:37;5.30;99.90
13880;DHT22;7010;48.200;16.332;2023-04-15T06:39:05;5.30;99.90
13880;DHT22;7010;48.200;16.332;2023-04-15T06:41:33;5.40;99.90
13880;DHT22;7010;48.200;16.332;2023-04-15T06:44:02;5.40;99.90
13880;DHT22;7010;48.200;16.332;2023-04-15T06:46:30;5.50;99.90
13880;DHT22;7010;48.200;16.332;2023-04-15T06:48:59;5.50;99.90
13880;DHT22;7010;48.200;16.332;2023-04-15T06:51:29;5.50;99.90
13880;DHT22;7010;48.200;16.332;2023-04-15T06:53:58;5.50;99.90
13880;DHT22;7010;48.200;16.332;2023-04-15T06:56:27;5.40;99.90
13880;DHT22;7010;48.200;16.332;2023-04-15T06:58:55;5.50;99.90
13880;DHT22;7010;48.200;16.332;2023-04-15T07:01:23;5.50;99.90
13880;DHT22;7010;48.200;16.332;2023-04-15T07:03:52;5.50;99.90
13880;DHT22;7010;48.200;16.332;2023-04-15T07:06:20;5.60;99.90
13880;DHT22;7010;48.200;16.332;2023-04-15T07:08:50;5.60;99.90
13880;DHT22;7010;48.200;16.332;2023-04-15T07:11:19;5.60;99.90
13880;DHT22;7010;48.200;16.332;2023-04-15T07:13:48;5.70;99.90
13880;DHT22;7010;48.200;16.332;2023-04-15T07:16:16;5.70;99.90
13880;DHT22;7010;48.200;16.332;2023-04-15T07:18:45;5.70;99.90
13880;DHT22;7010;48.200;16.332;2023-04-15T07:21:14;5.80;99.90
13880;DHT22;7010;48.200;16.332;2023-04-15T07:23:42;5.80;99.90
13880;DHT22;7010;48.200;16.332;2023-04-15T07:26:12;5.80;99.90
13880;DHT22;7010;48.200;16.332;2023-04-15T07:28:41;5.90;99.90
13880;DHT22;7010;48.200;16.332;2023-04-15T07:31:09;5.90;99.90
13880;DHT22;7010;48.200;16.332;2023-04-15T07:33:38;5.90;99.90
13880;DHT22;7010;48.200;16.332;2023-04-15T07:36:06;5.90;99.90
13880;DHT22;7010;48.200;16.332;2023-04-15T07:38:35;5.90;99.90
13880;DHT22;7010;48.200;16.332;2023-04-15T07:41:03;5.90;99.90
13880;DHT22;7010;48.200;16.332;2023-04-15T07:43:33;5.80;99.90
13880;DHT22;7010;48.200;16.332;2023-04-15T07:46:02;5.80;99.90
13880;DHT22;7010;48.200;16.332;2023-04-15T07:48:30;5.80;99.90
13880;DHT22;7010;48.200;16.332;2023-04-15T07:51:00;5.80;99.90
13880;DHT22;7010;48.200;16.332;2023-04-15T07:53:29;5.90;99.90
13880;DHT22;7010;48.200;16.332;2023-04-15T07:55:58;6.00;99.90
13880;DHT22;7010;48.200;16.332;2023-04-15T07:58:27;6.10;99.90
13880;DHT22;7010;48.200;16.332;2023-04-15T08:00:57;6.20;99.90
13880;DHT22;7010;48.200;16.332;2023-04-15T08:03:26;6.20;99.90
13880;DHT22;7010;48.200;16.332;2023-04-15T08:05:55;6.30;99.90
13880;DHT22;7010;48.200;16.332;2023-04-15T08:08:23;6.40;99.90
13880;DHT22;7010;48.200;16.332;2023-04-15T08:10:52;6.40;99.90
13880;DHT22;7010;48.200;16.332;2023-04-15T08:13:20;6.50;99.90
13880;DHT22;7010;48.200;16.332;2023-04-15T08:16:12;6.60;99.90
13880;DHT22;7010;48.200;16.332;2023-04-15T08:18:42;6.70;99.90
13880;DHT22;7010;48.200;16.332;2023-04-15T08:21:11;6.80;99.90
13880;DHT22;7010;48.200;16.332;2023-04-15T08:23:39;6.80;99.90
13880;DHT22;7010;48.200;16.332;2023-04-15T08:26:08;6.90;99.90
13880;DHT22;7010;48.200;16.332;2023-04-15T08:28:37;6.80;99.90
13880;DHT22;7010;48.200;16.332;2023-04-15T08:31:07;6.90;99.90
13880;DHT22;7010;48.200;16.332;2023-04-15T08:33:35;6.90;99.90
13880;DHT22;7010;48.200;16.332;2023-04-15T08:36:06;6.90;99.90
13880;DHT22;7010;48.200;16.332;2023-04-15T08:38:35;6.80;99.90
13880;DHT22;7010;48.200;16.332;2023-04-15T08:41:07;6.70;99.90
13880;DHT22;7010;48.200;16.332;2023-04-15T08:43:45;6.70;99.90
13880;DHT22;7010;48.200;16.332;2023-04-15T08:46:15;6.70;99.90
13880;DHT22;7010;48.200;16.332;2023-04-15T08:48:46;6.70;99.90
13880;DHT22;7010;48.200;16.332;2023-04-15T08:51:17;6.80;99.90
13880;DHT22;7010;48.200;16.332;2023-04-15T08:53:45;6.80;99.90
13880;DHT22;7010;48.200;16.332;2023-04-15T08:56:15;6.90;99.90
13880;DHT22;7010;48.200;16.332;2023-04-15T08:58:44;6.80;99.90
13880;DHT22;7010;48.200;16.332;2023-04-15T09:01:13;6.70;99.90
13880;DHT22;7010;48.200;16.332;2023-04-15T09:03:43;6.70;99.90
13880;DHT22;7010;48.200;16.332;2023-04-15T09:06:12;6.80;99.90
13880;DHT22;7010;48.200;16.332;2023-04-15T09:08:42;6.70;99.90
13880;DHT22;7010;48.200;16.332;2023-04-15T09:11:10;6.60;99.90
13880;DHT22;7010;48.200;16.332;2023-04-15T09:13:39;6.60;99.90
13880;DHT22;7010;48.200;16.332;2023-04-15T09:16:08;6.60;99.90
13880;DHT22;7010;48.200;16.332;2023-04-15T09:18:37;6.60;99.90
13880;DHT22;7010;48.200;16.332;2023-04-15T09:21:08;6.60;99.90
13880;DHT22;7010;48.200;16.332;2023-04-15T09:23:39;6.60;99.90
13880;DHT22;7010;48.200;16.332;2023-04-15T09:26:09;6.70;99.90
13880;DHT22;7010;48.200;16.332;2023-04-15T09:28:41;6.70;99.90
13880;DHT22;7010;48.200;16.332;2023-04-15T09:31:10;6.80;99.90
13880;DHT22;7010;48.200;16.332;2023-04-15T09:33:54;6.80;99.90
13880;DHT22;7010;48.200;16.332;2023-04-15T09:36:26;6.90;99.90
13880;DHT22;7010;48.200;16.332;2023-04-15T09:38:57;7.00;99.90
13880;DHT22;7010;48.200;16.332;2023-04-15T09:41:27;7.10;99.90
13880;DHT22;7010;48.200;16.332;2023-04-15T09:43:56;7.20;99.90
13880;DHT22;7010;48.200;16.332;2023-04-15T09:46:40;7.20;99.90
13880;DHT22;7010;48.200;16.332;2023-04-15T09:49:10;7.20;99.90
13880;DHT22;7010;48.200;16.332;2023-04-15T09:51:39;7.10;99.90
13880;DHT22;7010;48.200;16.332;2023-04-15T09:54:18;7.10;99.90
13880;DHT22;7010;48.200;16.332;2023-04-15T09:56:48;7.10;99.90
13880;DHT22;7010;48.200;16.332;2023-04-15T09:59:17;7.00;99.90
13880;DHT22;7010;48.200;16.332;2023-04-15T10:01:47;6.90;99.90
13880;DHT22;7010;48.200;16.332;2023-04-15T10:04:15;6.90;99.90
13880;DHT22;7010;48.200;16.332;2023-04-15T10:06:44;6.80;99.90
13880;DHT22;7010;48.200;16.332;2023-04-15T10:09:13;6.80;99.90
13880;DHT22;7010;48.200;16.332;2023-04-15T10:11:41;6.80;99.90
13880;DHT22;7010;48.200;16.332;2023-04-15T10:14:12;6.80;99.90
13880;DHT22;7010;48.200;16.332;2023-04-15T10:16:44;6.70;99.90
13880;DHT22;7010;48.200;16.332;2023-04-15T10:19:18;6.80;99.90
13880;DHT22;7010;48.200;16.332;2023-04-15T10:21:49;6.80;99.90
13880;DHT22;7010;48.200;16.332;2023-04-15T10:24:18;6.80;99.90
13880;DHT22;7010;48.200;16.332;2023-04-15T10:26:47;6.70;99.90
13880;DHT22;7010;48.200;16.332;2023-04-15T10:29:17;6.80;99.90
13880;DHT22;7010;48.200;16.332;2023-04-15T10:31:46;6.80;99.90
13880;DHT22;7010;48.200;16.332;2023-04-15T10:37:47;6.80;99.90
13880;DHT22;7010;48.200;16.332;2023-04-15T10:40:26;6.90;99.90
13880;DHT22;7010;48.200;16.332;2023-04-15T10:42:58;6.90;99.90
13880;DHT22;7010;48.200;16.332;2023-04-15T10:45:32;6.90;99.90
13880;DHT22;7010;48.200;16.332;2023-04-15T10:48:06;6.90;99.90
13880;DHT22;7010;48.200;16.332;2023-04-15T10:50:36;6.80;99.90
13880;DHT22;7010;48.200;16.332;2023-04-15T10:53:05;6.90;99.90
13880;DHT22;7010;48.200;16.332;2023-04-15T10:55:37;6.90;99.90
13880;DHT22;7010;48.200;16.332;2023-04-15T10:58:05;6.90;99.90
13880;DHT22;7010;48.200;16.332;2023-04-15T11:00:38;6.90;99.90
13880;DHT22;7010;48.200;16.332;2023-04-15T11:03:07;7.00;99.90
13880;DHT22;7010;48.200;16.332;2023-04-15T11:05:50;7.10;99.90
13880;DHT22;7010;48.200;16.332;2023-04-15T11:08:19;7.10;99.90
13880;DHT22;7010;48.200;16.332;2023-04-15T11:11:07;7.20;99.90
13880;DHT22;7010;48.200;16.332;2023-04-15T11:13:47;7.10;99.90
13880;DHT22;7010;48.200;16.332;2023-04-15T11:16:17;7.10;99.90
13880;DHT22;7010;48.200;16.332;2023-04-15T11:18:53;7.10;99.90
13880;DHT22;7010;48.200;16.332;2023-04-15T11:21:24;7.10;99.90
13880;DHT22;7010;48.200;16.332;2023-04-15T11:23:54;7.10;99.90
13880;DHT22;7010;48.200;16.332;2023-04-15T11:26:25;7.20;99.90
13880;DHT22;7010;48.200;16.332;2023-04-15T11:28:53;7.20;99.90
13880;DHT22;7010;48.200;16.332;2023-04-15T11:31:26;7.20;99.90
13880;DHT22;7010;48.200;16.332;2023-04-15T11:33:57;7.20;99.90
13880;DHT22;7010;48.200;16.332;2023-04-15T11:36:26;7.20;99.90
13880;DHT22;7010;48.200;16.332;2023-04-15T11:38:57;7.20;99.90
13880;DHT22;7010;48.200;16.332;2023-04-15T11:41:25;7.30;99.90
13880;DHT22;7010;48.200;16.332;2023-04-15T11:43:53;7.30;99.90
13880;DHT22;7010;48.200;16.332;2023-04-15T11:46:28;7.30;99.90
13880;DHT22;7010;48.200;16.332;2023-04-15T11:52:54;7.30;99.90
13880;DHT22;7010;48.200;16.332;2023-04-15T11:55:23;7.40;99.90
13880;DHT22;7010;48.200;16.332;2023-04-15T11:58:06;7.30;99.90
13880;DHT22;7010;48.200;16.332;2023-04-15T12:00:42;7.30;99.90
13880;DHT22;7010;48.200;16.332;2023-04-15T12:03:22;7.30;99.90
13880;DHT22;7010;48.200;16.332;2023-04-15T12:06:14;7.30;99.90
13880;DHT22;7010;48.200;16.332;2023-04-15T12:08:56;7.30;99.90
13880;DHT22;7010;48.200;16.332;2023-04-15T12:11:37;7.40;99.90
13880;DHT22;7010;48.200;16.332;2023-04-15T12:14:19;7.40;99.90
13880;DHT22;7010;48.200;16.332;2023-04-15T12:17:00;7.50;99.90
13880;DHT22;7010;48.200;16.332;2023-04-15T12:19:37;7.60;99.90
13880;DHT22;7010;48.200;16.332;2023-04-15T12:22:10;7.50;99.90
13880;DHT22;7010;48.200;16.332;2023-04-15T12:24:39;7.50;99.90
13880;DHT22;7010;48.200;16.332;2023-04-15T12:27:11;7.60;99.90
13880;DHT22;7010;48.200;16.332;2023-04-15T12:29:41;7.60;99.90
13880;DHT22;7010;48.200;16.332;2023-04-15T12:32:11;7.50;99.90
13880;DHT22;7010;48.200;16.332;2023-04-15T12:34:44;7.50;99.90
13880;DHT22;7010;48.200;16.332;2023-04-15T12:37:12;7.40;99.90
13880;DHT22;7010;48.200;16.332;2023-04-15T12:39:43;7.40;99.90
13880;DHT22;7010;48.200;16.332;2023-04-15T12:42:12;7.40;99.90
13880;DHT22;7010;48.200;16.332;2023-04-15T12:44:40;7.40;99.90
13880;DHT22;7010;48.200;16.332;2023-04-15T12:47:10;7.50;99.90
13880;DHT22;7010;48.200;16.332;2023-04-15T12:49:38;7.50;99.90
13880;DHT22;7010;48.200;16.332;2023-04-15T12:52:08;7.50;99.90
13880;DHT22;7010;48.200;16.332;2023-04-15T12:54:38;7.60;99.90
13880;DHT22;7010;48.200;16.332;2023-04-15T12:57:06;7.50;99.90
13880;DHT22;7010;48.200;16.332;2023-04-15T12:59:38;7.50;99.90
13880;DHT22;7010;48.200;16.332;2023-04-15T13:02:07;7.60;99.90
13880;DHT22;7010;48.200;16.332;2023-04-15T13:04:35;7.70;99.90
13880;DHT22;7010;48.200;16.332;2023-04-15T13:07:03;7.90;99.90
13880;DHT22;7010;48.200;16.332;2023-04-15T13:09:33;8.00;99.90
13880;DHT22;7010;48.200;16.332;2023-04-15T13:12:02;8.20;99.90
13880;DHT22;7010;48.200;16.332;2023-04-15T13:14:31;8.40;99.90
13880;DHT22;7010;48.200;16.332;2023-04-15T13:16:59;8.50;99.90
13880;DHT22;7010;48.200;16.332;2023-04-15T13:19:30;8.40;99.90
13880;DHT22;7010;48.200;16.332;2023-04-15T13:21:58;8.30;99.90
13880;DHT22;7010;48.200;16.332;2023-04-15T13:24:27;8.40;99.90
13880;DHT22;7010;48.200;16.332;2023-04-15T13:26:57;8.40;99.90
13880;DHT22;7010;48.200;16.332;2023-04-15T13:29:26;8.40;99.90
13880;DHT22;7010;48.200;16.332;2023-04-15T13:31:54;8.40;99.90
13880;DHT22;7010;48.200;16.332;2023-04-15T13:34:23;8.50;99.90
13880;DHT22;7010;48.200;16.332;2023-04-15T13:36:52;8.50;99.90
13880;DHT22;7010;48.200;16.332;2023-04-15T13:39:20;8.50;99.90
13880;DHT22;7010;48.200;16.332;2023-04-15T13:41:49;8.60;99.90
13880;DHT22;7010;48.200;16.332;2023-04-15T13:44:18;8.70;99.90
13880;DHT22;7010;48.200;16.332;2023-04-15T13:46:48;8.60;99.90
13880;DHT22;7010;48.200;16.332;2023-04-15T13:49:20;8.50;99.90
13880;DHT22;7010;48.200;16.332;2023-04-15T13:51:50;8.50;99.90
13880;DHT22;7010;48.200;16.332;2023-04-15T13:54:18;8.50;99.90
13880;DHT22;7010;48.200;16.332;2023-04-15T13:56:47;8.40;99.90
13880;DHT22;7010;48.200;16.332;2023-04-15T13:59:15;8.40;99.90
13880;DHT22;7010;48.200;16.332;2023-04-15T14:01:45;8.40;99.90
13880;DHT22;7010;48.200;16.332;2023-04-15T14:04:14;8.40;99.90
13880;DHT22;7010;48.200;16.332;2023-04-15T14:06:43;8.40;99.90
13880;DHT22;7010;48.200;16.332;2023-04-15T14:09:11;8.40;99.90
13880;DHT22;7010;48.200;16.332;2023-04-15T14:11:40;8.60;99.90
13880;DHT22;7010;48.200;16.332;2023-04-15T14:14:08;8.80;99.90
13880;DHT22;7010;48.200;16.332;2023-04-15T14:16:36;8.90;99.90
13880;DHT22;7010;48.200;16.332;2023-04-15T14:19:06;8.90;99.90
13880;DHT22;7010;48.200;16.332;2023-04-15T14:21:35;9.00;99.90
13880;DHT22;7010;48.200;16.332;2023-04-15T14:24:05;9.10;99.90
13880;DHT22;7010;48.200;16.332;2023-04-15T14:26:34;9.00;99.90
13880;DHT22;7010;48.200;16.332;2023-04-15T14:29:02;8.90;99.90
13880;DHT22;7010;48.200;16.332;2023-04-15T14:31:31;8.90;99.90
13880;DHT22;7010;48.200;16.332;2023-04-15T14:34:00;8.80;99.90
13880;DHT22;7010;48.200;16.332;2023-04-15T14:36:30;8.80;99.90
13880;DHT22;7010;48.200;16.332;2023-04-15T14:38:59;8.60;99.90
13880;DHT22;7010;48.200;16.332;2023-04-15T14:41:27;8.60;99.90
13880;DHT22;7010;48.200;16.332;2023-04-15T14:44:00;8.40;99.90
13880;DHT22;7010;48.200;16.332;2023-04-15T14:46:28;8.50;99.90
13880;DHT22;7010;48.200;16.332;2023-04-15T14:48:59;8.40;99.90
13880;DHT22;7010;48.200;16.332;2023-04-15T14:51:27;8.40;99.90
13880;DHT22;7010;48.200;16.332;2023-04-15T14:53:58;8.40;99.90
13880;DHT22;7010;48.200;16.332;2023-04-15T14:56:27;8.40;99.90
13880;DHT22;7010;48.200;16.332;2023-04-15T14:58:56;8.30;99.90
13880;DHT22;7010;48.200;16.332;2023-04-15T15:01:24;8.30;99.90
13880;DHT22;7010;48.200;16.332;2023-04-15T15:03:56;8.20;99.90
13880;DHT22;7010;48.200;16.332;2023-04-15T15:06:24;8.30;99.90
13880;DHT22;7010;48.200;16.332;2023-04-15T15:08:53;8.20;99.90
13880;DHT22;7010;48.200;16.332;2023-04-15T15:11:24;8.10;99.90
13880;DHT22;7010;48.200;16.332;2023-04-15T15:13:57;8.20;99.90
13880;DHT22;7010;48.200;16.332;2023-04-15T15:16:29;8.20;99.90
13880;DHT22;7010;48.200;16.332;2023-04-15T15:18:58;8.20;99.90
13880;DHT22;7010;48.200;16.332;2023-04-15T15:21:27;8.20;99.90
13880;DHT22;7010;48.200;16.332;2023-04-15T15:23:55;8.20;99.90
13880;DHT22;7010;48.200;16.332;2023-04-15T15:26:25;8.30;99.90
13880;DHT22;7010;48.200;16.332;2023-04-15T15:28:54;8.20;99.90
13880;DHT22;7010;48.200;16.332;2023-04-15T15:31:22;8.20;99.90
13880;DHT22;7010;48.200;16.332;2023-04-15T15:33:50;8.10;99.90
13880;DHT22;7010;48.200;16.332;2023-04-15T15:36:19;8.10;99.90
13880;DHT22;7010;48.200;16.332;2023-04-15T15:38:47;8.20;99.90
13880;DHT22;7010;48.200;16.332;2023-04-15T15:41:15;8.20;99.90
13880;DHT22;7010;48.200;16.332;2023-04-15T15:43:45;8.20;99.90
13880;DHT22;7010;48.200;16.332;2023-04-15T15:46:14;8.20;99.90
13880;DHT22;7010;48.200;16.332;2023-04-15T15:48:43;8.20;99.90
13880;DHT22;7010;48.200;16.332;2023-04-15T15:51:11;8.20;99.90
13880;DHT22;7010;48.200;16.332;2023-04-15T15:53:40;8.20;99.90
13880;DHT22;7010;48.200;16.332;2023-04-15T15:56:10;8.10;99.90
13880;DHT22;7010;48.200;16.332;2023-04-15T15:58:38;8.10;99.90
13880;DHT22;7010;48.200;16.332;2023-04-15T16:01:08;8.10;99.90
13880;DHT22;7010;48.200;16.332;2023-04-15T16:03:37;8.10;99.90
13880;DHT22;7010;48.200;16.332;2023-04-15T16:06:06;8.10;99.90
13880;DHT22;7010;48.200;16.332;2023-04-15T16:08:34;8.10;99.90